Impacts METAR Board
IDs:

KLAS - Las Vegas/McCarran I, NV, US

Updated at: 1200 UTC 09 Jul 2020
Potential Impact None Slight Moderate High
Time 09/00Z 09/01Z 09/02Z 09/03Z 09/04Z 09/05Z 09/06Z 09/07Z 09/08Z 09/09Z 09/10Z 09/11Z 09/12Z
Temp103 101 100 97 95 94 90 89 87 86 84 83 82
Dewpt6 6 8 14 15 15 19 18 18 26 27 31 33
Altim29.73 29.73 29.73 29.73 29.74 29.76 29.77 29.77 29.78 29.78 29.79 29.79 29.79
VIS10 10 10 10 10 10 10 10 10 10 10 10 10
CIG-- -- -- -- -- -- -- -- -- -- -- -- --
CoverCLRCLRCLRCLRCLRCLRCLRCLRCLRCLRCLRCLRCLR
FltCatVFRVFRVFRVFRVFRVFRVFRVFRVFRVFRVFRVFRVFR
WX--------------------------
WDir210240230220200200180190190200190190190
WSpd7 12 10 8 5 8 4 8 9 7 9 8 9
WGst-- 19 -- 17 -- -- -- -- -- -- -- -- 16
Raw hourly METARs
KLAS 082356Z 21007KT 180V250 10SM CLR 39/M14 A2973 RMK AO2 SLP037 T03941144 10400 20350 56020
KLAS 090056Z 24012G19KT 10SM CLR 38/M14 A2973 RMK AO2 SLP034 T03831144
KLAS 090156Z 23010KT 10SM CLR 38/M13 A2973 RMK AO2 SLP034 T03781133
KLAS 090256Z 22008G17KT 10SM CLR 36/M10 A2973 RMK AO2 SLP037 T03611100 53000
KLAS 090356Z 20005KT 10SM CLR 35/M09 A2974 RMK AO2 SLP040 T03501094
KLAS 090456Z 20008KT 10SM CLR 34/M09 A2976 RMK AO2 SLP044 T03441094
KLAS 090556Z 18004KT 10SM CLR 32/M07 A2977 RMK AO2 SLP047 T03221072 10394 20322 51010
KLAS 090656Z 19008KT 10SM CLR 32/M08 A2977 RMK AO2 SLP048 T03171078
KLAS 090756Z 19009KT 10SM CLR 31/M08 A2978 RMK AO2 SLP053 T03061078 404000272
KLAS 090856Z 20007KT 10SM CLR 30/M03 A2978 RMK AO2 SLP053 T03001033 52006
KLAS 090956Z 19009KT 10SM CLR 29/M03 A2979 RMK AO2 SLP053 T02891028
KLAS 091056Z 19008KT 10SM CLR 28/M01 A2979 RMK AO2 SLP056 T02831006
KLAS 091156Z 19009G16KT 10SM CLR 28/01 A2979 RMK AO2 SLP057 T02780006 10322 20278 53003



Page loaded:  12:16 UTC  |   05:16 AM Pacific  |   06:16 AM Mountain  |   07:16 AM Central  |   08:16 AM Eastern

 

ADVISORIES

FORECASTS

FORECASTS

OBSERVATIONS

USER TOOLS

ABOUT US